Time;durP1;ratioP1;P1;durP2;ratioP2;P2;SDS_P1;SDS_P2;PMS_P1;PMS_P2;Temp;Humidity;BMP_temperature;BMP_pressure;BME280_temperature;BME280_humidity;BME280_pressure;Samples;Min_cycle;Max_cycle;Signal;HPM_P1;HPM_P2
2021/10/14 00:01:08;;;;;;;10.13;5.93;;;;;10.50;102207.00;;;;10286959;28;20751;-80
2021/10/14 00:06:11;;;;;;;8.57;4.53;;;;;10.50;102210.00;;;;10287198;28;20780;-80
2021/10/14 00:11:12;;;;;;;11.93;5.07;;;;;10.60;102208.00;;;;10286897;28;20671;-80
2021/10/14 00:16:14;;;;;;;9.07;4.33;;;;;10.60;102201.00;;;;10302229;28;20196;-80
2021/10/14 00:21:16;;;;;;;13.47;5.20;;;;;10.60;102198.00;;;;10286305;28;20228;-80
2021/10/14 00:26:18;;;;;;;14.27;4.43;;;;;10.70;102196.00;;;;10317912;28;20227;-80
2021/10/14 00:31:20;;;;;;;12.40;4.63;;;;;10.70;102194.00;;;;10302420;28;20200;-80
2021/10/14 00:36:24;;;;;;;10.13;5.07;;;;;10.70;102193.00;;;;10301869;28;20196;-80
2021/10/14 00:41:25;;;;;;;16.43;6.10;;;;;10.70;102194.00;;;;10285934;28;20652;-80
2021/10/14 00:46:27;;;;;;;11.17;5.87;;;;;10.70;102186.00;;;;10302072;28;20201;-80
2021/10/14 00:51:29;;;;;;;14.40;6.37;;;;;10.70;102186.00;;;;10284962;28;20774;-80
2021/10/14 00:56:31;;;;;;;11.60;6.67;;;;;10.70;102188.00;;;;10286525;28;20687;-80
2021/10/14 01:01:35;;;;;;;14.00;6.27;;;;;10.70;102182.00;;;;10284928;28;20251;-80
2021/10/14 01:06:37;;;;;;;10.77;6.57;;;;;10.70;102183.00;;;;10313770;28;20237;-80
2021/10/14 01:11:40;;;;;;;16.00;7.07;;;;;10.70;102173.00;;;;10325910;28;20227;-80
2021/10/14 01:16:44;;;;;;;9.80;6.20;;;;;10.60;102168.00;;;;10300616;28;20201;-80
2021/10/14 01:21:49;;;;;;;17.67;7.67;;;;;10.70;102171.00;;;;10316859;28;20664;-80
2021/10/14 01:26:51;;;;;;;10.90;6.83;;;;;10.70;102167.00;;;;10320311;28;20200;-81
2021/10/14 01:31:53;;;;;;;13.37;6.57;;;;;10.70;102155.00;;;;10330226;28;20226;-80
2021/10/14 01:36:55;;;;;;;14.47;6.40;;;;;10.70;102151.00;;;;10313907;28;20192;-80
2021/10/14 01:41:57;;;;;;;13.00;6.53;;;;;10.70;102146.00;;;;10330465;28;20211;-80
2021/10/14 01:46:59;;;;;;;13.27;6.00;;;;;10.70;102138.00;;;;10313977;28;20196;-80
2021/10/14 01:52:02;;;;;;;10.23;5.90;;;;;10.70;102131.00;;;;10314394;28;20195;-80
2021/10/14 01:57:04;;;;;;;13.33;5.30;;;;;10.70;102128.00;;;;10296840;28;20223;-81
2021/10/14 02:02:06;;;;;;;11.33;5.50;;;;;10.70;102121.00;;;;10304112;28;20204;-80
2021/10/14 02:07:08;;;;;;;14.40;6.07;;;;;10.80;102122.00;;;;10331294;28;20199;-80
2021/10/14 02:12:10;;;;;;;9.60;4.90;;;;;10.70;102121.00;;;;10318417;28;20199;-80
2021/10/14 02:17:12;;;;;;;13.10;5.73;;;;;10.80;102113.00;;;;10299917;28;20247;-80
2021/10/14 02:22:14;;;;;;;11.00;5.07;;;;;10.80;102113.00;;;;10297053;28;20255;-80
2021/10/14 02:27:15;;;;;;;8.70;5.43;;;;;10.70;102113.00;;;;10297048;28;20215;-80
2021/10/14 02:32:18;;;;;;;12.37;5.07;;;;;10.80;102117.00;;;;10313072;28;20192;-80
2021/10/14 02:37:19;;;;;;;12.90;5.43;;;;;10.80;102110.00;;;;10275278;28;20205;-80
2021/10/14 02:42:21;;;;;;;8.13;5.97;;;;;10.70;102103.00;;;;10286399;28;20188;-81
2021/10/14 02:47:23;;;;;;;8.23;5.20;;;;;10.70;102097.00;;;;10306276;28;20208;-81
2021/10/14 02:52:25;;;;;;;8.97;5.47;;;;;10.70;102102.00;;;;10298881;28;20196;-80
2021/10/14 02:57:27;;;;;;;10.03;5.27;;;;;10.60;102103.00;;;;10289683;28;20216;-81
2021/10/14 03:02:29;;;;;;;10.77;5.77;;;;;10.60;102105.00;;;;10307175;28;20223;-80
2021/10/14 03:07:31;;;;;;;12.17;5.53;;;;;10.60;102108.00;;;;10269844;28;20220;-80
2021/10/14 03:12:34;;;;;;;8.47;5.23;;;;;10.60;102114.00;;;;10321241;28;20255;-81
2021/10/14 03:17:36;;;;;;;12.20;5.10;;;;;10.70;102112.00;;;;10267524;28;20201;-81
2021/10/14 03:22:38;;;;;;;8.83;5.80;;;;;10.70;102113.00;;;;10273073;28;20207;-80
2021/10/14 03:27:40;;;;;;;10.37;6.20;;;;;10.70;102108.00;;;;10304579;28;20263;-80
2021/10/14 03:32:42;;;;;;;12.40;6.23;;;;;10.60;102101.00;;;;10289048;28;20208;-80
2021/10/14 03:37:46;;;;;;;13.60;6.33;;;;;10.60;102111.00;;;;10281564;28;20200;-81
2021/10/14 03:42:48;;;;;;;11.83;6.80;;;;;10.60;102108.00;;;;10303070;28;20283;-81
2021/10/14 03:47:50;;;;;;;11.40;6.57;;;;;10.60;102112.00;;;;10292045;28;20201;-81
2021/10/14 03:52:52;;;;;;;12.50;7.27;;;;;10.60;102104.00;;;;10302523;28;20192;-80
2021/10/14 03:57:55;;;;;;;13.00;7.97;;;;;10.60;102106.00;;;;10303463;28;20259;-81
2021/10/14 04:02:57;;;;;;;12.93;6.77;;;;;10.60;102111.00;;;;10320950;28;20200;-81
2021/10/14 04:07:59;;;;;;;10.50;7.17;;;;;10.60;102117.00;;;;10303986;28;20695;-80
2021/10/14 04:19:41;;;;;;;13.80;7.50;;;;;10.60;102107.00;;;;10281651;28;20194;-80
2021/10/14 04:24:45;;;;;;;18.77;8.93;;;;;10.60;102112.00;;;;10303405;28;20196;-80
2021/10/14 04:29:47;;;;;;;12.53;8.17;;;;;10.60;102101.00;;;;10294319;28;20275;-81
2021/10/14 04:34:50;;;;;;;18.33;7.93;;;;;10.60;102107.00;;;;10302846;28;20592;-81
2021/10/14 04:39:52;;;;;;;14.57;8.90;;;;;10.60;102104.00;;;;10302899;28;20193;-80
2021/10/14 04:44:54;;;;;;;16.10;9.17;;;;;10.60;102097.00;;;;10318469;28;20219;-80
2021/10/14 04:49:56;;;;;;;18.30;9.10;;;;;10.60;102107.00;;;;10305744;28;20253;-80
2021/10/14 04:54:58;;;;;;;17.63;9.47;;;;;10.60;102100.00;;;;10291311;28;20567;-80
2021/10/14 05:00:00;;;;;;;12.97;9.23;;;;;10.60;102095.00;;;;10294618;28;20205;-80
2021/10/14 05:05:02;;;;;;;17.77;9.50;;;;;10.60;102091.00;;;;10301557;28;20200;-81
2021/10/14 05:10:04;;;;;;;17.53;10.30;;;;;10.60;102096.00;;;;10306549;28;20208;-81
2021/10/14 05:15:08;;;;;;;14.47;9.57;;;;;10.60;102091.00;;;;10316172;28;20180;-80
2021/10/14 05:20:11;;;;;;;18.60;9.80;;;;;10.60;102083.00;;;;10302078;28;20207;-80
2021/10/14 05:25:12;;;;;;;19.10;9.87;;;;;10.60;102091.00;;;;10286494;28;20227;-81
2021/10/14 05:30:15;;;;;;;13.87;9.13;;;;;10.60;102085.00;;;;10284399;28;20208;-81
2021/10/14 05:35:16;;;;;;;15.40;9.90;;;;;10.60;102089.00;;;;10317403;28;20652;-80
2021/10/14 05:40:18;;;;;;;13.70;9.53;;;;;10.70;102093.00;;;;10316877;28;20196;-80
2021/10/14 05:45:20;;;;;;;16.00;9.57;;;;;10.70;102083.00;;;;10301198;28;20204;-80
2021/10/14 05:50:22;;;;;;;14.30;9.17;;;;;10.70;102088.00;;;;10265662;28;20208;-80
2021/10/14 05:55:25;;;;;;;14.60;9.60;;;;;10.70;102078.00;;;;10299265;28;20220;-80
2021/10/14 06:00:26;;;;;;;13.13;9.20;;;;;10.70;102083.00;;;;10283647;28;20549;-81
2021/10/14 06:05:28;;;;;;;17.87;9.83;;;;;10.70;102082.00;;;;10301668;28;20203;-80
2021/10/14 06:10:32;;;;;;;14.43;9.10;;;;;10.70;102085.00;;;;10330141;28;20226;-80
2021/10/14 06:15:34;;;;;;;18.20;10.70;;;;;10.70;102077.00;;;;10289955;28;20262;-80
2021/10/14 06:20:36;;;;;;;19.00;10.10;;;;;10.80;102085.00;;;;10323385;28;20180;-80
2021/10/14 06:25:38;;;;;;;17.57;10.20;;;;;10.80;102075.00;;;;10290911;28;20200;-80
2021/10/14 06:30:40;;;;;;;18.03;10.17;;;;;10.90;102074.00;;;;10290471;28;20944;-81
2021/10/14 06:35:42;;;;;;;14.73;9.73;;;;;11.00;102074.00;;;;10291210;28;20196;-80
2021/10/14 06:40:44;;;;;;;15.03;10.60;;;;;10.90;102078.00;;;;10307022;28;20204;-80
2021/10/14 06:45:46;;;;;;;18.23;10.20;;;;;10.90;102074.00;;;;10322156;28;20196;-81
2021/10/14 06:50:48;;;;;;;17.53;10.83;;;;;10.90;102073.00;;;;10324431;28;20231;-80
2021/10/14 06:55:50;;;;;;;15.37;10.40;;;;;11.00;102063.00;;;;10322993;28;20220;-81
2021/10/14 07:00:54;;;;;;;18.63;10.60;;;;;11.20;102076.00;;;;10281052;28;20300;-80
2021/10/14 07:05:57;;;;;;;17.30;10.53;;;;;11.60;102074.00;;;;10284543;28;20237;-80
2021/10/14 07:10:59;;;;;;;13.27;10.00;;;;;11.60;102082.00;;;;10303102;28;21048;-80
2021/10/14 07:16:01;;;;;;;18.97;10.90;;;;;11.90;102078.00;;;;10277028;28;20698;-81
2021/10/14 07:21:03;;;;;;;20.50;11.03;;;;;12.30;102076.00;;;;10322066;28;20641;-81
2021/10/14 07:26:07;;;;;;;17.57;10.03;;;;;12.50;102088.00;;;;10294865;28;20279;-80
2021/10/14 07:31:09;;;;;;;14.93;10.33;;;;;12.50;102081.00;;;;10304448;28;20204;-80
2021/10/14 07:36:11;;;;;;;18.87;11.13;;;;;12.60;102085.00;;;;10292967;28;20600;-81
2021/10/14 07:41:13;;;;;;;18.83;10.17;;;;;12.60;102091.00;;;;10287352;28;20192;-80
2021/10/14 07:46:15;;;;;;;16.00;9.67;;;;;12.60;102085.00;;;;10282925;28;20200;-80
2021/10/14 07:51:17;;;;;;;18.00;9.63;;;;;12.60;102080.00;;;;10292560;28;20586;-80
2021/10/14 07:56:19;;;;;;;15.03;9.47;;;;;12.70;102090.00;;;;10287803;28;20314;-80
2021/10/14 08:01:21;;;;;;;15.50;9.37;;;;;12.80;102087.00;;;;10302558;28;20200;-80
2021/10/14 08:06:23;;;;;;;13.50;9.13;;;;;13.00;102087.00;;;;10298972;28;20199;-80
2021/10/14 08:11:25;;;;;;;12.17;8.73;;;;;13.10;102089.00;;;;10298391;28;20220;-81
2021/10/14 08:16:27;;;;;;;15.27;9.03;;;;;13.30;102097.00;;;;10310525;28;20219;-80
2021/10/14 08:21:29;;;;;;;10.67;7.70;;;;;13.60;102104.00;;;;10287592;28;20575;-80
2021/10/14 08:26:31;;;;;;;10.90;7.47;;;;;13.80;102097.00;;;;10302628;28;20200;-80
2021/10/14 08:31:33;;;;;;;14.17;8.67;;;;;13.90;102088.00;;;;10282060;28;20686;-80
2021/10/14 08:36:35;;;;;;;17.93;8.03;;;;;14.10;102093.00;;;;10290782;28;20192;-81
2021/10/14 08:41:39;;;;;;;12.07;8.10;;;;;14.20;102096.00;;;;10284947;28;20188;-80
2021/10/14 08:46:42;;;;;;;14.00;7.80;;;;;14.50;102091.00;;;;10286214;28;20655;-80
2021/10/14 08:51:44;;;;;;;14.03;7.20;;;;;14.60;102087.00;;;;10278084;28;20204;-81
2021/10/14 08:56:48;;;;;;;9.87;8.10;;;;;14.80;102087.00;;;;10301797;28;20224;-81
2021/10/14 09:02:08;;;;;;;9.83;6.83;;;;;15.20;102091.00;;;;10285461;28;20200;-81
2021/10/14 09:07:16;;;;;;;11.03;6.97;;;;;15.50;102084.00;;;;10317708;28;20216;-80
2021/10/14 09:12:21;;;;;;;12.77;8.23;;;;;15.50;102089.00;;;;10281517;28;20258;-81
2021/10/14 09:17:38;;;;;;;10.95;6.60;;;;;15.80;102084.00;;;;10286922;28;20209;-82
2021/10/14 09:23:00;;;;;;;11.93;7.40;;;;;15.80;102081.00;;;;10296705;28;20202;-82
2021/10/14 09:28:11;;;;;;;10.52;7.40;;;;;15.90;102068.00;;;;10290158;28;20201;-82
2021/10/14 09:33:37;;;;;;;7.90;6.28;;;;;16.30;102064.00;;;;10300609;28;20198;-82
2021/10/14 09:38:40;;;;;;;12.00;6.53;;;;;16.10;102063.00;;;;10289722;28;20200;-81
2021/10/14 09:43:42;;;;;;;10.32;7.43;;;;;16.20;102057.00;;;;10268953;28;20478;-81
2021/10/14 09:48:48;;;;;;;11.40;7.30;;;;;16.20;102067.00;;;;10297403;28;20208;-81
2021/10/14 09:53:50;;;;;;;12.73;7.30;;;;;16.30;102071.00;;;;10269471;28;20200;-80
2021/10/14 09:58:54;;;;;;;14.70;6.88;;;;;16.90;102070.00;;;;10282694;28;20196;-81
2021/10/14 10:03:57;;;;;;;10.77;6.45;;;;;16.70;102076.00;;;;10291564;28;20203;-81
2021/10/14 10:09:11;;;;;;;12.05;6.72;;;;;16.50;102076.00;;;;10303382;28;20231;-81
2021/10/14 10:14:14;;;;;;;9.48;6.85;;;;;16.40;102074.00;;;;10264353;28;20237;-81
2021/10/14 10:19:40;;;;;;;10.35;7.05;;;;;16.40;102073.00;;;;10260570;28;20648;-81
2021/10/14 10:24:42;;;;;;;11.18;7.30;;;;;16.40;102070.00;;;;10280175;28;20231;-82
2021/10/14 10:29:45;;;;;;;10.25;6.28;;;;;16.50;102067.00;;;;10276824;28;20211;-81
2021/10/14 10:34:51;;;;;;;9.75;7.13;;;;;16.50;102062.00;;;;10261456;28;20258;-82
2021/10/14 10:40:13;;;;;;;9.57;6.45;;;;;16.40;102064.00;;;;10280760;28;20192;-81
2021/10/14 10:45:23;;;;;;;7.90;6.32;;;;;16.40;102065.00;;;;10284962;28;20286;-82
2021/10/14 10:50:44;;;;;;;12.93;7.25;;;;;16.40;102057.00;;;;10279138;28;20215;-81
2021/10/14 10:55:55;;;;;;;10.05;6.53;;;;;16.30;102047.00;;;;10271105;28;20233;-81
2021/10/14 11:00:58;;;;;;;12.70;6.63;;;;;16.10;102060.00;;;;10295257;28;20196;-81
2021/10/14 11:06:07;;;;;;;12.40;6.75;;;;;15.90;102045.00;;;;10305659;28;20242;-81
2021/10/14 11:11:17;;;;;;;10.80;6.80;;;;;15.70;102050.00;;;;10276340;28;20224;-81
2021/10/14 11:16:23;;;;;;;12.48;6.90;;;;;15.60;102040.00;;;;10296449;28;20671;-81
2021/10/14 11:21:26;;;;;;;11.60;7.88;;;;;15.80;102032.00;;;;10300841;28;20652;-80
2021/10/14 11:26:35;;;;;;;11.88;7.47;;;;;16.00;102018.00;;;;10287428;28;20193;-81
2021/10/14 11:32:04;;;;;;;11.52;7.13;;;;;16.30;102008.00;;;;10272814;28;20267;-80
2021/10/14 11:37:09;;;;;;;14.55;8.07;;;;;16.40;102005.00;;;;10293313;28;20196;-81
2021/10/14 11:42:16;;;;;;;11.05;7.18;;;;;16.50;102007.00;;;;10300097;28;20244;-81
2021/10/14 11:47:21;;;;;;;10.48;7.20;;;;;16.60;101996.00;;;;10316816;28;20197;-81
2021/10/14 11:52:22;;;;;;;9.88;6.68;;;;;16.70;101984.00;;;;10304564;28;20762;-81
2021/10/14 11:57:31;;;;;;;14.45;7.90;;;;;16.70;101995.00;;;;10282609;28;20220;-81
2021/10/14 12:02:34;;;;;;;13.10;7.22;;;;;16.50;101987.00;;;;10283682;28;20224;-81
2021/10/14 12:07:36;;;;;;;12.15;7.10;;;;;16.40;101977.00;;;;10278060;28;20209;-79
2021/10/14 12:12:38;;;;;;;9.43;6.72;;;;;16.40;101968.00;;;;10281630;28;20299;-81
2021/10/14 12:17:50;;;;;;;13.90;6.93;;;;;16.60;101964.00;;;;10283824;28;20211;-81
2021/10/14 12:22:55;;;;;;;9.45;6.68;;;;;16.60;101957.00;;;;10298854;28;20682;-81
2021/10/14 12:27:57;;;;;;;8.98;7.10;;;;;16.70;101946.00;;;;10281641;28;20207;-81
2021/10/14 12:33:12;;;;;;;10.90;6.70;;;;;16.80;101951.00;;;;10283409;28;20196;-81
2021/10/14 12:38:15;;;;;;;11.88;5.47;;;;;16.80;101949.00;;;;10283449;28;20203;-81
2021/10/14 12:43:24;;;;;;;11.07;5.85;;;;;16.60;101945.00;;;;10298889;28;20657;-81
2021/10/14 12:48:42;;;;;;;11.73;5.97;;;;;16.50;101949.00;;;;10267387;28;20615;-81
2021/10/14 12:53:49;;;;;;;6.88;5.57;;;;;16.50;101950.00;;;;10282512;28;20192;-79
2021/10/14 12:58:51;;;;;;;10.20;5.80;;;;;16.20;101936.00;;;;10266613;28;20200;-81
2021/10/14 13:03:54;;;;;;;10.65;6.75;;;;;15.80;101934.00;;;;10282303;28;20195;-82
2021/10/14 13:08:57;;;;;;;12.02;6.93;;;;;15.70;101926.00;;;;10308652;28;20212;-81
2021/10/14 13:14:02;;;;;;;10.95;6.90;;;;;15.70;101916.00;;;;10313961;28;20196;-81
2021/10/14 13:19:06;;;;;;;13.00;6.15;;;;;15.50;101914.00;;;;10287385;28;20219;-81
2021/10/14 13:24:08;;;;;;;11.07;6.82;;;;;15.40;101907.00;;;;10313225;28;20321;-82
2021/10/14 13:29:10;;;;;;;9.90;6.30;;;;;15.50;101903.00;;;;10281684;28;20852;-81
2021/10/14 13:34:13;;;;;;;8.95;6.65;;;;;15.70;101899.00;;;;10269121;28;20201;-81
2021/10/14 13:39:16;;;;;;;12.07;6.15;;;;;15.70;101890.00;;;;10271285;28;20287;-82
2021/10/14 13:44:21;;;;;;;13.18;6.30;;;;;15.80;101891.00;;;;10309074;28;20248;-81
2021/10/14 13:49:23;;;;;;;8.80;5.70;;;;;15.90;101882.00;;;;10255457;28;20213;-82
2021/10/14 13:54:25;;;;;;;8.82;5.65;;;;;16.00;101872.00;;;;10296543;28;20220;-82
2021/10/14 13:59:27;;;;;;;8.65;5.38;;;;;16.20;101863.00;;;;10296501;28;20204;-81
2021/10/14 14:04:29;;;;;;;8.95;5.38;;;;;16.20;101850.00;;;;10256482;28;20251;-81
2021/10/14 14:09:33;;;;;;;11.90;5.65;;;;;16.20;101839.00;;;;10296843;28;20239;-81
2021/10/14 14:14:35;;;;;;;9.93;5.97;;;;;16.00;101846.00;;;;10295671;28;21016;-82
2021/10/14 14:19:37;;;;;;;9.10;6.32;;;;;16.00;101832.00;;;;10262058;28;20197;-82
2021/10/14 14:24:38;;;;;;;9.68;6.60;;;;;15.80;101839.00;;;;10304742;28;20200;-81
2021/10/14 14:29:43;;;;;;;9.93;6.70;;;;;15.70;101835.00;;;;10331024;28;20258;-81
2021/10/14 14:34:45;;;;;;;11.63;6.25;;;;;15.80;101823.00;;;;10313544;28;20265;-82
2021/10/14 14:39:47;;;;;;;9.27;6.97;;;;;15.60;101816.00;;;;10335614;28;20276;-81
2021/10/14 14:44:49;;;;;;;14.73;6.25;;;;;15.60;101812.00;;;;10256204;28;20255;-81
2021/10/14 14:50:07;;;;;;;11.73;6.87;;;;;15.50;101818.00;;;;10270827;28;20232;-82
2021/10/14 14:55:09;;;;;;;12.05;7.57;;;;;15.40;101806.00;;;;10316962;28;20278;-82
2021/10/14 15:00:11;;;;;;;11.65;6.80;;;;;15.20;101804.00;;;;10302585;28;20231;-81
2021/10/14 15:05:13;;;;;;;13.57;5.80;;;;;15.10;101806.00;;;;10302270;28;20216;-83
2021/10/14 15:10:19;;;;;;;8.20;5.10;;;;;15.00;101802.00;;;;10301807;28;20676;-81
2021/10/14 15:15:21;;;;;;;10.00;4.65;;;;;14.80;101797.00;;;;10298073;28;20644;-81
2021/10/14 15:20:23;;;;;;;8.87;3.73;;;;;14.80;101801.00;;;;10284773;28;20205;-81
2021/10/14 15:25:25;;;;;;;7.57;3.22;;;;;14.80;101795.00;;;;10332418;28;20204;-81
2021/10/14 15:30:27;;;;;;;5.87;3.53;;;;;14.70;101787.00;;;;10284784;28;20196;-81
2021/10/14 15:35:32;;;;;;;5.97;3.70;;;;;14.80;101797.00;;;;10266792;28;20736;-81
2021/10/14 15:40:34;;;;;;;12.60;4.47;;;;;14.70;101777.00;;;;10316802;28;20220;-81
2021/10/14 15:45:37;;;;;;;8.90;3.80;;;;;14.80;101774.00;;;;10300573;28;20200;-81
2021/10/14 15:50:39;;;;;;;11.30;4.07;;;;;14.80;101773.00;;;;10323837;28;20236;-81
2021/10/14 15:55:41;;;;;;;8.80;3.70;;;;;14.70;101762.00;;;;10306091;28;20243;-81
2021/10/14 16:00:43;;;;;;;9.73;3.80;;;;;14.60;101763.00;;;;10299753;28;20258;-81
2021/10/14 16:05:48;;;;;;;5.50;3.50;;;;;14.50;101758.00;;;;10294354;28;20207;-81
2021/10/14 16:10:50;;;;;;;9.27;3.50;;;;;14.40;101757.00;;;;10280899;28;20212;-82
2021/10/14 16:15:53;;;;;;;6.50;3.63;;;;;14.30;101750.00;;;;10287200;28;20278;-81
2021/10/14 16:20:54;;;;;;;7.07;3.50;;;;;14.30;101741.00;;;;10302400;28;20192;-80
2021/10/14 16:25:56;;;;;;;7.57;3.40;;;;;14.20;101735.00;;;;10318036;28;20204;-81
2021/10/14 16:31:02;;;;;;;6.90;3.20;;;;;14.10;101729.00;;;;10292149;28;20247;-81
2021/10/14 16:36:04;;;;;;;5.90;3.33;;;;;13.90;101722.00;;;;10286297;28;20703;-81
2021/10/14 16:41:06;;;;;;;5.97;3.33;;;;;13.80;101722.00;;;;10302053;28;20197;-81
2021/10/14 16:46:09;;;;;;;7.07;4.13;;;;;13.80;101709.00;;;;10300168;28;20243;-81
2021/10/14 16:51:11;;;;;;;14.00;8.33;;;;;13.60;101709.00;;;;10300180;28;20213;-81
2021/10/14 16:56:13;;;;;;;14.73;10.23;;;;;13.50;101709.00;;;;10326741;28;20692;-81
2021/10/14 17:01:15;;;;;;;12.90;5.37;;;;;13.40;101703.00;;;;10296470;28;20601;-81
2021/10/14 17:06:18;;;;;;;7.80;3.90;;;;;13.30;101705.00;;;;10301654;28;20204;-81
2021/10/14 17:11:27;;;;;;;10.77;3.90;;;;;13.20;101707.00;;;;10301719;28;20208;-81
2021/10/14 17:16:46;;;;;;;7.57;3.83;;;;;13.20;101701.00;;;;10317138;28;20200;-81
2021/10/14 17:37:56;;;;;;;9.93;4.73;;;;;12.90;101695.00;;;;10301333;28;20737;-80
2021/10/14 17:43:14;;;;;;;6.37;4.60;;;;;12.90;101682.00;;;;10341469;28;20218;-81
2021/10/14 17:48:16;;;;;;;7.90;4.67;;;;;12.90;101682.00;;;;10357432;28;20200;-81
2021/10/14 17:53:19;;;;;;;8.23;4.10;;;;;12.90;101676.00;;;;10358169;28;20215;-81
2021/10/14 17:58:21;;;;;;;10.23;6.00;;;;;12.90;101680.00;;;;10353648;28;20224;-81
2021/10/14 18:03:29;;;;;;;11.03;5.97;;;;;12.90;101668.00;;;;10295196;28;20192;-81
2021/10/14 18:40:16;;;;;;;7.13;5.07;;;;;12.60;101645.00;;;;10322813;28;20651;-81
2021/10/14 18:45:19;;;;;;;7.43;4.63;;;;;12.60;101646.00;;;;10305602;28;20219;-81
2021/10/14 18:50:28;;;;;;;14.53;4.53;;;;;12.50;101632.00;;;;10321724;28;20576;-81
2021/10/14 18:55:30;;;;;;;10.87;4.53;;;;;12.30;101637.00;;;;10289070;28;20282;-80
2021/10/14 19:00:32;;;;;;;7.20;4.10;;;;;12.10;101637.00;;;;10321891;28;20204;-80
2021/10/14 19:05:45;;;;;;;9.80;4.37;;;;;11.90;101628.00;;;;10295027;28;20258;-80
2021/10/14 19:16:11;;;;;;;8.33;4.43;;;;;11.60;101623.00;;;;10290981;28;20714;-80
2021/10/14 20:15:14;;;;;;;12.47;5.10;;;;;10.80;101596.00;;;;10278060;28;20549;-80
2021/10/14 20:20:16;;;;;;;7.00;4.23;;;;;10.70;101591.00;;;;10302085;28;20196;-80
2021/10/14 20:25:20;;;;;;;7.40;4.17;;;;;10.60;101588.00;;;;10269573;28;20266;-80
2021/10/14 20:30:22;;;;;;;7.20;4.67;;;;;10.60;101578.00;;;;10281809;28;20528;-79
2021/10/14 20:35:32;;;;;;;9.60;4.60;;;;;10.50;101582.00;;;;10283890;28;20204;-80
2021/10/14 20:40:34;;;;;;;8.30;4.87;;;;;10.40;101580.00;;;;10294781;28;20203;-79
2021/10/14 20:45:36;;;;;;;7.93;4.57;;;;;10.40;101565.00;;;;10268013;28;20231;-80
2021/10/14 20:50:38;;;;;;;9.77;5.00;;;;;10.30;101567.00;;;;10268428;28;20233;-79
2021/10/14 21:06:35;;;;;;;6.50;4.57;;;;;10.00;101554.00;;;;10314944;28;20207;-81
2021/10/14 21:11:37;;;;;;;10.87;5.33;;;;;9.90;101552.00;;;;10304769;28;20627;-79
2021/10/14 21:16:39;;;;;;;10.97;5.17;;;;;9.80;101547.00;;;;10298331;28;20197;-79
2021/10/14 21:21:40;;;;;;;8.70;5.00;;;;;9.70;101543.00;;;;10281697;28;20277;-79
2021/10/14 21:26:47;;;;;;;8.87;5.23;;;;;9.70;101541.00;;;;10300702;28;20255;-81
2021/10/14 21:37:10;;;;;;;12.03;5.30;;;;;9.50;101533.00;;;;10283982;28;20655;-80
2021/10/14 21:42:29;;;;;;;15.00;5.53;;;;;9.40;101526.00;;;;10291263;28;20647;-80
2021/10/14 21:47:31;;;;;;;11.67;5.13;;;;;9.30;101536.00;;;;10292312;28;20196;-80
2021/10/14 21:52:35;;;;;;;17.80;6.30;;;;;9.20;101533.00;;;;10292930;28;20200;-79
2021/10/14 21:57:37;;;;;;;9.83;5.10;;;;;9.10;101524.00;;;;10323533;28;20274;-80
2021/10/14 22:02:38;;;;;;;9.07;5.67;;;;;9.10;101515.00;;;;10292773;28;20200;-79
2021/10/14 22:07:43;;;;;;;11.30;5.40;;;;;9.10;101516.00;;;;10314348;28;20204;-79
2021/10/14 22:12:48;;;;;;;11.77;5.50;;;;;9.10;101497.00;;;;10266979;28;20251;-79
2021/10/14 22:17:50;;;;;;;15.07;5.60;;;;;9.20;101498.00;;;;10297033;28;20615;-80
2021/10/14 22:22:52;;;;;;;10.87;6.23;;;;;9.20;101502.00;;;;10305851;28;20192;-79
2021/10/14 22:27:54;;;;;;;11.23;5.43;;;;;9.30;101494.00;;;;10305949;28;20663;-80
2021/10/14 22:32:57;;;;;;;10.13;5.77;;;;;9.30;101493.00;;;;10348944;28;20207;-79
2021/10/14 22:37:58;;;;;;;8.53;5.70;;;;;9.30;101497.00;;;;10294120;28;20240;-79
2021/10/14 22:43:02;;;;;;;11.17;5.50;;;;;9.20;101488.00;;;;10273955;28;20201;-79
2021/10/14 22:48:04;;;;;;;12.23;6.00;;;;;9.20;101482.00;;;;10306041;28;20603;-79
2021/10/14 22:53:06;;;;;;;10.83;5.70;;;;;9.10;101477.00;;;;10265951;28;20212;-79
2021/10/14 22:58:08;;;;;;;14.00;6.20;;;;;9.10;101466.00;;;;10298831;28;20224;-79
2021/10/14 23:03:10;;;;;;;12.67;5.90;;;;;9.00;101456.00;;;;10304832;28;20196;-80
2021/10/14 23:08:11;;;;;;;12.70;5.63;;;;;8.90;101444.00;;;;10331855;28;20203;-79
2021/10/14 23:13:14;;;;;;;14.43;6.20;;;;;8.90;101439.00;;;;10264866;28;20312;-79
2021/10/14 23:18:16;;;;;;;8.47;5.43;;;;;8.80;101428.00;;;;10296219;28;20200;-79
2021/10/14 23:23:19;;;;;;;13.60;6.37;;;;;8.70;101421.00;;;;10319857;28;20188;-79
2021/10/14 23:28:22;;;;;;;13.53;6.23;;;;;8.70;101405.00;;;;10319823;28;20204;-80
2021/10/14 23:33:24;;;;;;;10.73;6.17;;;;;8.70;101407.00;;;;10303791;28;20212;-79
2021/10/14 23:38:26;;;;;;;8.87;5.47;;;;;8.70;101402.00;;;;10254308;28;20231;-79
2021/10/14 23:43:29;;;;;;;11.37;6.00;;;;;8.70;101397.00;;;;10303152;28;20196;-79
2021/10/14 23:48:31;;;;;;;10.60;5.70;;;;;8.80;101393.00;;;;10281684;28;20244;-82
2021/10/14 23:53:32;;;;;;;17.00;6.70;;;;;8.80;101389.00;;;;10285483;28;20204;-81
2021/10/14 23:58:34;;;;;;;10.93;6.17;;;;;8.90;101384.00;;;;10285958;28;20653;-83
